sensor_id;sensor_type;location;lat;lon;timestamp;temperature;humidity
12682;DHT22;6405;59.208;18.216;2024-01-30T00:01:26;1.30;99.90
12682;DHT22;6405;59.208;18.216;2024-01-30T00:03:51;1.40;99.90
12682;DHT22;6405;59.208;18.216;2024-01-30T00:06:20;1.20;99.90
12682;DHT22;6405;59.208;18.216;2024-01-30T00:08:46;1.20;99.90
12682;DHT22;6405;59.208;18.216;2024-01-30T00:11:14;1.20;99.90
12682;DHT22;6405;59.208;18.216;2024-01-30T00:13:41;1.30;99.90
12682;DHT22;6405;59.208;18.216;2024-01-30T00:16:07;1.20;99.90
12682;DHT22;6405;59.208;18.216;2024-01-30T00:18:34;1.20;99.90
12682;DHT22;6405;59.208;18.216;2024-01-30T00:21:00;1.30;99.90
12682;DHT22;6405;59.208;18.216;2024-01-30T00:23:25;1.20;99.90
12682;DHT22;6405;59.208;18.216;2024-01-30T00:25:51;1.20;99.90
12682;DHT22;6405;59.208;18.216;2024-01-30T00:28:17;1.40;99.90
12682;DHT22;6405;59.208;18.216;2024-01-30T00:30:42;1.10;99.90
12682;DHT22;6405;59.208;18.216;2024-01-30T00:33:09;1.10;99.90
12682;DHT22;6405;59.208;18.216;2024-01-30T00:35:35;1.20;99.90
12682;DHT22;6405;59.208;18.216;2024-01-30T00:38:00;1.10;99.90
12682;DHT22;6405;59.208;18.216;2024-01-30T00:40:26;1.20;99.90
12682;DHT22;6405;59.208;18.216;2024-01-30T00:42:52;1.00;99.90
12682;DHT22;6405;59.208;18.216;2024-01-30T00:45:17;1.10;99.90
12682;DHT22;6405;59.208;18.216;2024-01-30T00:47:44;1.00;99.90
12682;DHT22;6405;59.208;18.216;2024-01-30T00:50:11;0.90;99.90
12682;DHT22;6405;59.208;18.216;2024-01-30T00:52:36;1.10;99.90
12682;DHT22;6405;59.208;18.216;2024-01-30T00:55:05;1.10;99.90
12682;DHT22;6405;59.208;18.216;2024-01-30T00:57:30;0.90;99.90
12682;DHT22;6405;59.208;18.216;2024-01-30T00:59:57;0.90;99.90
12682;DHT22;6405;59.208;18.216;2024-01-30T01:02:22;0.80;99.90
12682;DHT22;6405;59.208;18.216;2024-01-30T01:04:48;0.80;99.90
12682;DHT22;6405;59.208;18.216;2024-01-30T01:07:14;0.80;99.90
12682;DHT22;6405;59.208;18.216;2024-01-30T01:09:39;0.80;99.90
12682;DHT22;6405;59.208;18.216;2024-01-30T01:12:05;0.80;99.90
12682;DHT22;6405;59.208;18.216;2024-01-30T01:14:31;0.80;99.90
12682;DHT22;6405;59.208;18.216;2024-01-30T01:16:57;0.80;99.90
12682;DHT22;6405;59.208;18.216;2024-01-30T01:19:22;0.80;99.90
12682;DHT22;6405;59.208;18.216;2024-01-30T01:21:48;0.80;99.90
12682;DHT22;6405;59.208;18.216;2024-01-30T01:24:14;0.80;99.90
12682;DHT22;6405;59.208;18.216;2024-01-30T01:26:40;0.80;99.90
12682;DHT22;6405;59.208;18.216;2024-01-30T01:29:08;0.70;99.90
12682;DHT22;6405;59.208;18.216;2024-01-30T01:31:37;0.90;99.90
12682;DHT22;6405;59.208;18.216;2024-01-30T01:34:13;0.70;99.90
12682;DHT22;6405;59.208;18.216;2024-01-30T01:36:39;0.70;99.90
12682;DHT22;6405;59.208;18.216;2024-01-30T01:39:05;0.60;99.90
12682;DHT22;6405;59.208;18.216;2024-01-30T01:41:31;0.60;99.90
12682;DHT22;6405;59.208;18.216;2024-01-30T01:43:58;0.60;99.90
12682;DHT22;6405;59.208;18.216;2024-01-30T01:46:27;0.50;99.90
12682;DHT22;6405;59.208;18.216;2024-01-30T01:48:53;0.50;99.90
12682;DHT22;6405;59.208;18.216;2024-01-30T01:51:20;0.50;99.90
12682;DHT22;6405;59.208;18.216;2024-01-30T01:53:47;0.50;99.90
12682;DHT22;6405;59.208;18.216;2024-01-30T01:56:13;0.40;99.90
12682;DHT22;6405;59.208;18.216;2024-01-30T01:58:39;0.40;99.90
12682;DHT22;6405;59.208;18.216;2024-01-30T02:01:05;0.40;99.90
12682;DHT22;6405;59.208;18.216;2024-01-30T02:03:32;0.30;99.90
12682;DHT22;6405;59.208;18.216;2024-01-30T02:05:59;0.30;99.90
12682;DHT22;6405;59.208;18.216;2024-01-30T02:08:24;0.20;99.90
12682;DHT22;6405;59.208;18.216;2024-01-30T02:10:50;0.20;99.90
12682;DHT22;6405;59.208;18.216;2024-01-30T02:13:16;0.20;99.90
12682;DHT22;6405;59.208;18.216;2024-01-30T02:15:41;0.20;99.90
12682;DHT22;6405;59.208;18.216;2024-01-30T02:18:07;0.10;99.90
12682;DHT22;6405;59.208;18.216;2024-01-30T02:20:35;0.10;99.90
12682;DHT22;6405;59.208;18.216;2024-01-30T02:23:01;0.00;99.90
12682;DHT22;6405;59.208;18.216;2024-01-30T02:25:35;-0.10;99.90
12682;DHT22;6405;59.208;18.216;2024-01-30T02:28:01;-0.10;99.90
12682;DHT22;6405;59.208;18.216;2024-01-30T02:30:27;-0.10;99.90
12682;DHT22;6405;59.208;18.216;2024-01-30T02:32:52;-0.20;99.90
12682;DHT22;6405;59.208;18.216;2024-01-30T02:35:18;-0.20;99.90
12682;DHT22;6405;59.208;18.216;2024-01-30T02:37:44;-0.20;99.90
12682;DHT22;6405;59.208;18.216;2024-01-30T02:40:09;-0.30;99.90
12682;DHT22;6405;59.208;18.216;2024-01-30T02:42:35;-0.30;99.90
12682;DHT22;6405;59.208;18.216;2024-01-30T02:45:01;-0.30;99.90
12682;DHT22;6405;59.208;18.216;2024-01-30T02:47:26;-0.30;99.90
12682;DHT22;6405;59.208;18.216;2024-01-30T02:49:52;-0.30;99.90
12682;DHT22;6405;59.208;18.216;2024-01-30T02:52:18;-0.40;99.90
12682;DHT22;6405;59.208;18.216;2024-01-30T02:54:44;-0.30;99.90
12682;DHT22;6405;59.208;18.216;2024-01-30T02:57:10;-0.40;99.90
12682;DHT22;6405;59.208;18.216;2024-01-30T02:59:36;-0.40;99.90
12682;DHT22;6405;59.208;18.216;2024-01-30T03:02:02;-0.40;99.90
12682;DHT22;6405;59.208;18.216;2024-01-30T03:04:27;-0.40;99.90
12682;DHT22;6405;59.208;18.216;2024-01-30T03:06:55;-0.20;99.90
12682;DHT22;6405;59.208;18.216;2024-01-30T03:09:21;-0.40;99.90
12682;DHT22;6405;59.208;18.216;2024-01-30T03:11:46;-0.30;99.90
12682;DHT22;6405;59.208;18.216;2024-01-30T03:14:12;-0.30;99.90
12682;DHT22;6405;59.208;18.216;2024-01-30T03:16:38;-0.30;99.90
12682;DHT22;6405;59.208;18.216;2024-01-30T03:19:06;-0.40;99.90
12682;DHT22;6405;59.208;18.216;2024-01-30T03:21:33;-0.40;99.90
12682;DHT22;6405;59.208;18.216;2024-01-30T03:23:59;-0.40;99.90
12682;DHT22;6405;59.208;18.216;2024-01-30T03:26:25;-0.40;99.90
12682;DHT22;6405;59.208;18.216;2024-01-30T03:28:50;-0.50;99.90
12682;DHT22;6405;59.208;18.216;2024-01-30T03:31:17;-0.40;99.90
12682;DHT22;6405;59.208;18.216;2024-01-30T03:33:42;-0.50;99.90
12682;DHT22;6405;59.208;18.216;2024-01-30T03:36:09;-0.50;99.90
12682;DHT22;6405;59.208;18.216;2024-01-30T03:38:35;-0.60;99.90
12682;DHT22;6405;59.208;18.216;2024-01-30T03:41:01;-0.60;99.90
12682;DHT22;6405;59.208;18.216;2024-01-30T03:43:26;-0.50;99.90
12682;DHT22;6405;59.208;18.216;2024-01-30T03:45:52;-0.60;99.90
12682;DHT22;6405;59.208;18.216;2024-01-30T03:48:19;-0.60;99.90
12682;DHT22;6405;59.208;18.216;2024-01-30T03:50:45;-0.50;99.90
12682;DHT22;6405;59.208;18.216;2024-01-30T03:53:11;-0.60;99.90
12682;DHT22;6405;59.208;18.216;2024-01-30T03:55:36;-0.60;99.90
12682;DHT22;6405;59.208;18.216;2024-01-30T03:58:02;-0.60;99.90
12682;DHT22;6405;59.208;18.216;2024-01-30T04:00:28;-0.60;99.90
12682;DHT22;6405;59.208;18.216;2024-01-30T04:02:53;-0.60;99.90
12682;DHT22;6405;59.208;18.216;2024-01-30T04:05:19;-0.60;99.90
12682;DHT22;6405;59.208;18.216;2024-01-30T04:07:45;-0.60;99.90
12682;DHT22;6405;59.208;18.216;2024-01-30T04:10:10;-0.60;99.90
12682;DHT22;6405;59.208;18.216;2024-01-30T04:12:36;-0.60;99.90
12682;DHT22;6405;59.208;18.216;2024-01-30T04:15:02;-0.60;99.90
12682;DHT22;6405;59.208;18.216;2024-01-30T04:17:29;-0.60;99.90
12682;DHT22;6405;59.208;18.216;2024-01-30T04:19:55;-0.60;99.90
12682;DHT22;6405;59.208;18.216;2024-01-30T04:22:21;-0.60;99.90
12682;DHT22;6405;59.208;18.216;2024-01-30T04:24:47;-0.60;99.90
12682;DHT22;6405;59.208;18.216;2024-01-30T04:27:12;-0.60;99.90
12682;DHT22;6405;59.208;18.216;2024-01-30T04:29:38;-0.60;99.90
12682;DHT22;6405;59.208;18.216;2024-01-30T04:32:04;-0.50;99.90
12682;DHT22;6405;59.208;18.216;2024-01-30T04:34:30;-0.50;99.90
12682;DHT22;6405;59.208;18.216;2024-01-30T04:36:55;-0.50;99.90
12682;DHT22;6405;59.208;18.216;2024-01-30T04:39:21;-0.50;99.90
12682;DHT22;6405;59.208;18.216;2024-01-30T04:41:47;-0.50;99.90
12682;DHT22;6405;59.208;18.216;2024-01-30T04:44:14;-0.50;99.90
12682;DHT22;6405;59.208;18.216;2024-01-30T04:46:40;-0.50;99.90
12682;DHT22;6405;59.208;18.216;2024-01-30T04:49:05;-0.50;99.90
12682;DHT22;6405;59.208;18.216;2024-01-30T04:51:33;-0.50;99.90
12682;DHT22;6405;59.208;18.216;2024-01-30T04:53:59;-0.40;99.90
12682;DHT22;6405;59.208;18.216;2024-01-30T04:56:24;-0.40;99.90
12682;DHT22;6405;59.208;18.216;2024-01-30T04:58:50;-0.40;99.90
12682;DHT22;6405;59.208;18.216;2024-01-30T05:01:16;-0.40;99.90
12682;DHT22;6405;59.208;18.216;2024-01-30T05:03:42;-0.40;99.90
12682;DHT22;6405;59.208;18.216;2024-01-30T05:06:08;-0.40;99.90
12682;DHT22;6405;59.208;18.216;2024-01-30T05:08:34;-0.40;99.90
12682;DHT22;6405;59.208;18.216;2024-01-30T05:11:02;-0.30;99.90
12682;DHT22;6405;59.208;18.216;2024-01-30T05:13:30;-0.40;99.90
12682;DHT22;6405;59.208;18.216;2024-01-30T05:15:56;-0.30;99.90
12682;DHT22;6405;59.208;18.216;2024-01-30T05:18:22;-0.30;99.90
12682;DHT22;6405;59.208;18.216;2024-01-30T05:20:47;-0.30;99.90
12682;DHT22;6405;59.208;18.216;2024-01-30T05:23:13;-0.30;99.90
12682;DHT22;6405;59.208;18.216;2024-01-30T05:25:39;-0.30;99.90
12682;DHT22;6405;59.208;18.216;2024-01-30T05:28:05;-0.30;99.90
12682;DHT22;6405;59.208;18.216;2024-01-30T05:30:31;-0.30;99.90
12682;DHT22;6405;59.208;18.216;2024-01-30T05:32:56;-0.30;99.90
12682;DHT22;6405;59.208;18.216;2024-01-30T05:35:22;-0.30;99.90
12682;DHT22;6405;59.208;18.216;2024-01-30T05:37:48;-0.30;99.90
12682;DHT22;6405;59.208;18.216;2024-01-30T05:40:15;-0.20;99.90
12682;DHT22;6405;59.208;18.216;2024-01-30T05:42:42;-0.20;99.90
12682;DHT22;6405;59.208;18.216;2024-01-30T05:45:07;-0.20;99.90
12682;DHT22;6405;59.208;18.216;2024-01-30T05:47:36;-0.10;99.90
12682;DHT22;6405;59.208;18.216;2024-01-30T05:50:02;-0.20;99.90
12682;DHT22;6405;59.208;18.216;2024-01-30T05:52:28;-0.20;99.90
12682;DHT22;6405;59.208;18.216;2024-01-30T05:54:54;-0.20;99.90
12682;DHT22;6405;59.208;18.216;2024-01-30T05:57:20;-0.10;99.90
12682;DHT22;6405;59.208;18.216;2024-01-30T05:59:45;-0.10;99.90
12682;DHT22;6405;59.208;18.216;2024-01-30T06:02:13;-0.10;99.90
12682;DHT22;6405;59.208;18.216;2024-01-30T06:04:39;-0.10;99.90
12682;DHT22;6405;59.208;18.216;2024-01-30T06:07:05;-0.10;99.90
12682;DHT22;6405;59.208;18.216;2024-01-30T06:09:32;-0.10;99.90
12682;DHT22;6405;59.208;18.216;2024-01-30T06:11:57;-0.10;99.90
12682;DHT22;6405;59.208;18.216;2024-01-30T06:14:24;-0.10;99.90
12682;DHT22;6405;59.208;18.216;2024-01-30T06:16:49;-0.10;99.90
12682;DHT22;6405;59.208;18.216;2024-01-30T06:19:15;-0.10;99.90
12682;DHT22;6405;59.208;18.216;2024-01-30T06:21:41;-0.10;99.90
12682;DHT22;6405;59.208;18.216;2024-01-30T06:24:07;0.00;99.90
12682;DHT22;6405;59.208;18.216;2024-01-30T06:26:33;0.00;99.90
12682;DHT22;6405;59.208;18.216;2024-01-30T06:28:59;0.00;99.90
12682;DHT22;6405;59.208;18.216;2024-01-30T06:31:24;0.00;99.90
12682;DHT22;6405;59.208;18.216;2024-01-30T06:33:53;-0.10;99.90
12682;DHT22;6405;59.208;18.216;2024-01-30T06:36:18;-0.10;99.90
12682;DHT22;6405;59.208;18.216;2024-01-30T06:38:44;0.00;99.90
12682;DHT22;6405;59.208;18.216;2024-01-30T06:41:10;-0.10;99.90
12682;DHT22;6405;59.208;18.216;2024-01-30T06:43:36;-0.10;99.90
12682;DHT22;6405;59.208;18.216;2024-01-30T06:46:01;0.00;99.90
12682;DHT22;6405;59.208;18.216;2024-01-30T06:48:27;0.00;99.90
12682;DHT22;6405;59.208;18.216;2024-01-30T06:50:53;0.00;99.90
12682;DHT22;6405;59.208;18.216;2024-01-30T06:53:20;0.00;99.90
12682;DHT22;6405;59.208;18.216;2024-01-30T06:55:45;0.00;99.90
12682;DHT22;6405;59.208;18.216;2024-01-30T06:58:11;0.00;99.90
12682;DHT22;6405;59.208;18.216;2024-01-30T07:00:37;0.00;99.90
12682;DHT22;6405;59.208;18.216;2024-01-30T07:03:03;0.00;99.90
12682;DHT22;6405;59.208;18.216;2024-01-30T07:05:29;0.00;99.90
12682;DHT22;6405;59.208;18.216;2024-01-30T07:07:54;0.10;99.90
12682;DHT22;6405;59.208;18.216;2024-01-30T07:10:20;0.10;99.90
12682;DHT22;6405;59.208;18.216;2024-01-30T07:12:46;0.10;99.90
12682;DHT22;6405;59.208;18.216;2024-01-30T07:15:12;0.30;99.90
12682;DHT22;6405;59.208;18.216;2024-01-30T07:17:40;0.10;99.90
12682;DHT22;6405;59.208;18.216;2024-01-30T07:20:06;0.10;99.90
12682;DHT22;6405;59.208;18.216;2024-01-30T07:22:33;0.20;99.90
12682;DHT22;6405;59.208;18.216;2024-01-30T07:24:59;0.20;99.90
12682;DHT22;6405;59.208;18.216;2024-01-30T07:27:24;0.20;99.90
12682;DHT22;6405;59.208;18.216;2024-01-30T07:29:50;0.20;99.90
12682;DHT22;6405;59.208;18.216;2024-01-30T07:32:16;0.20;99.90
12682;DHT22;6405;59.208;18.216;2024-01-30T07:34:41;0.20;99.90
12682;DHT22;6405;59.208;18.216;2024-01-30T07:37:07;0.20;99.90
12682;DHT22;6405;59.208;18.216;2024-01-30T07:39:34;0.20;99.90
12682;DHT22;6405;59.208;18.216;2024-01-30T07:42:00;0.20;99.90
12682;DHT22;6405;59.208;18.216;2024-01-30T07:44:26;0.20;99.90
12682;DHT22;6405;59.208;18.216;2024-01-30T07:46:51;0.20;99.90
12682;DHT22;6405;59.208;18.216;2024-01-30T07:49:17;0.20;99.90
12682;DHT22;6405;59.208;18.216;2024-01-30T07:51:43;0.20;99.90
12682;DHT22;6405;59.208;18.216;2024-01-30T07:54:13;0.20;99.90
12682;DHT22;6405;59.208;18.216;2024-01-30T07:56:39;0.30;99.90
12682;DHT22;6405;59.208;18.216;2024-01-30T07:59:04;0.30;99.90
12682;DHT22;6405;59.208;18.216;2024-01-30T08:01:30;0.30;99.90
12682;DHT22;6405;59.208;18.216;2024-01-30T08:03:55;0.40;99.90
12682;DHT22;6405;59.208;18.216;2024-01-30T08:06:21;0.40;99.90
12682;DHT22;6405;59.208;18.216;2024-01-30T08:08:47;0.40;99.90
12682;DHT22;6405;59.208;18.216;2024-01-30T08:11:12;0.50;99.90
12682;DHT22;6405;59.208;18.216;2024-01-30T08:13:38;0.50;99.90
12682;DHT22;6405;59.208;18.216;2024-01-30T08:16:04;0.60;99.90
12682;DHT22;6405;59.208;18.216;2024-01-30T08:18:31;0.50;99.90
12682;DHT22;6405;59.208;18.216;2024-01-30T08:20:57;0.50;99.90
12682;DHT22;6405;59.208;18.216;2024-01-30T08:23:23;0.60;99.90
12682;DHT22;6405;59.208;18.216;2024-01-30T08:25:48;0.60;99.90
12682;DHT22;6405;59.208;18.216;2024-01-30T08:28:14;0.60;99.90
12682;DHT22;6405;59.208;18.216;2024-01-30T08:30:40;0.60;99.90
12682;DHT22;6405;59.208;18.216;2024-01-30T08:33:05;0.60;99.90
12682;DHT22;6405;59.208;18.216;2024-01-30T08:35:31;0.60;99.90
12682;DHT22;6405;59.208;18.216;2024-01-30T08:37:59;0.70;99.90
12682;DHT22;6405;59.208;18.216;2024-01-30T08:40:25;0.80;99.90
12682;DHT22;6405;59.208;18.216;2024-01-30T08:42:51;0.90;99.90
12682;DHT22;6405;59.208;18.216;2024-01-30T08:45:16;1.10;99.90
12682;DHT22;6405;59.208;18.216;2024-01-30T08:47:42;0.90;99.90
12682;DHT22;6405;59.208;18.216;2024-01-30T08:50:08;0.90;99.90
12682;DHT22;6405;59.208;18.216;2024-01-30T08:52:34;0.90;99.90
12682;DHT22;6405;59.208;18.216;2024-01-30T08:55:00;1.00;99.90
12682;DHT22;6405;59.208;18.216;2024-01-30T08:57:26;1.00;99.90
12682;DHT22;6405;59.208;18.216;2024-01-30T08:59:54;1.00;99.90
12682;DHT22;6405;59.208;18.216;2024-01-30T09:02:20;1.30;99.90
12682;DHT22;6405;59.208;18.216;2024-01-30T09:04:46;1.20;99.90
12682;DHT22;6405;59.208;18.216;2024-01-30T09:07:12;1.20;99.90
12682;DHT22;6405;59.208;18.216;2024-01-30T09:09:39;1.30;99.90
12682;DHT22;6405;59.208;18.216;2024-01-30T09:12:07;1.20;99.90
12682;DHT22;6405;59.208;18.216;2024-01-30T09:14:35;1.30;99.90
12682;DHT22;6405;59.208;18.216;2024-01-30T09:17:01;1.30;99.90
12682;DHT22;6405;59.208;18.216;2024-01-30T09:19:28;1.30;99.90
12682;DHT22;6405;59.208;18.216;2024-01-30T09:21:54;1.30;99.90
12682;DHT22;6405;59.208;18.216;2024-01-30T09:24:20;1.50;99.90
12682;DHT22;6405;59.208;18.216;2024-01-30T09:26:45;1.50;99.90
12682;DHT22;6405;59.208;18.216;2024-01-30T09:29:11;1.60;99.90
12682;DHT22;6405;59.208;18.216;2024-01-30T09:31:37;1.50;99.90
12682;DHT22;6405;59.208;18.216;2024-01-30T09:34:03;1.70;99.90
12682;DHT22;6405;59.208;18.216;2024-01-30T09:36:28;1.50;99.90
12682;DHT22;6405;59.208;18.216;2024-01-30T09:38:54;1.60;99.90
12682;DHT22;6405;59.208;18.216;2024-01-30T09:41:20;1.50;99.90
12682;DHT22;6405;59.208;18.216;2024-01-30T09:43:50;1.70;99.90
12682;DHT22;6405;59.208;18.216;2024-01-30T09:46:17;1.60;99.90
12682;DHT22;6405;59.208;18.216;2024-01-30T09:48:48;1.60;99.90
12682;DHT22;6405;59.208;18.216;2024-01-30T09:51:15;1.60;99.90
12682;DHT22;6405;59.208;18.216;2024-01-30T09:53:42;1.70;99.90
12682;DHT22;6405;59.208;18.216;2024-01-30T09:56:09;1.70;99.90
12682;DHT22;6405;59.208;18.216;2024-01-30T09:58:36;1.70;99.90
12682;DHT22;6405;59.208;18.216;2024-01-30T10:01:02;1.80;99.90
12682;DHT22;6405;59.208;18.216;2024-01-30T10:03:28;1.90;99.90
12682;DHT22;6405;59.208;18.216;2024-01-30T10:05:55;2.00;99.90
12682;DHT22;6405;59.208;18.216;2024-01-30T10:08:21;2.00;99.90
12682;DHT22;6405;59.208;18.216;2024-01-30T10:10:47;2.00;99.90
12682;DHT22;6405;59.208;18.216;2024-01-30T10:13:13;2.10;99.90
12682;DHT22;6405;59.208;18.216;2024-01-30T10:15:39;2.20;99.90
12682;DHT22;6405;59.208;18.216;2024-01-30T10:18:06;2.20;99.90
12682;DHT22;6405;59.208;18.216;2024-01-30T10:20:32;2.20;99.90
12682;DHT22;6405;59.208;18.216;2024-01-30T10:22:59;2.30;99.90
12682;DHT22;6405;59.208;18.216;2024-01-30T10:25:25;2.30;99.90
12682;DHT22;6405;59.208;18.216;2024-01-30T10:27:55;2.40;99.90
12682;DHT22;6405;59.208;18.216;2024-01-30T10:30:21;2.50;99.90
12682;DHT22;6405;59.208;18.216;2024-01-30T10:32:48;2.50;99.90
12682;DHT22;6405;59.208;18.216;2024-01-30T10:35:14;2.60;99.90
12682;DHT22;6405;59.208;18.216;2024-01-30T10:37:39;2.60;99.90
12682;DHT22;6405;59.208;18.216;2024-01-30T10:40:05;2.70;99.90
12682;DHT22;6405;59.208;18.216;2024-01-30T10:42:33;2.70;99.90
12682;DHT22;6405;59.208;18.216;2024-01-30T10:45:09;2.70;99.90
12682;DHT22;6405;59.208;18.216;2024-01-30T10:47:36;2.80;99.90
12682;DHT22;6405;59.208;18.216;2024-01-30T10:50:02;2.80;99.90
12682;DHT22;6405;59.208;18.216;2024-01-30T10:52:32;2.80;99.90
12682;DHT22;6405;59.208;18.216;2024-01-30T10:54:58;2.80;99.90
12682;DHT22;6405;59.208;18.216;2024-01-30T10:57:25;2.80;99.90
12682;DHT22;6405;59.208;18.216;2024-01-30T10:59:55;2.80;99.90
12682;DHT22;6405;59.208;18.216;2024-01-30T11:02:22;2.80;99.90
12682;DHT22;6405;59.208;18.216;2024-01-30T11:04:49;2.90;99.90
12682;DHT22;6405;59.208;18.216;2024-01-30T11:07:16;2.90;99.90
12682;DHT22;6405;59.208;18.216;2024-01-30T11:09:53;2.90;99.90
12682;DHT22;6405;59.208;18.216;2024-01-30T11:12:23;3.10;99.90
12682;DHT22;6405;59.208;18.216;2024-01-30T11:14:50;3.00;99.90
12682;DHT22;6405;59.208;18.216;2024-01-30T11:17:15;3.10;99.90
12682;DHT22;6405;59.208;18.216;2024-01-30T11:19:41;3.10;99.90
12682;DHT22;6405;59.208;18.216;2024-01-30T11:22:07;3.10;99.90
12682;DHT22;6405;59.208;18.216;2024-01-30T11:24:40;3.10;99.90
12682;DHT22;6405;59.208;18.216;2024-01-30T11:27:09;3.10;99.90
12682;DHT22;6405;59.208;18.216;2024-01-30T11:29:40;3.00;99.90
12682;DHT22;6405;59.208;18.216;2024-01-30T11:32:05;3.00;99.90
12682;DHT22;6405;59.208;18.216;2024-01-30T11:34:32;3.00;99.90
12682;DHT22;6405;59.208;18.216;2024-01-30T11:37:03;3.10;99.90
12682;DHT22;6405;59.208;18.216;2024-01-30T11:39:32;3.00;99.90
12682;DHT22;6405;59.208;18.216;2024-01-30T11:41:59;2.90;99.90
12682;DHT22;6405;59.208;18.216;2024-01-30T11:44:25;3.00;99.90
12682;DHT22;6405;59.208;18.216;2024-01-30T11:46:52;3.00;99.90
12682;DHT22;6405;59.208;18.216;2024-01-30T11:49:18;3.00;99.90
12682;DHT22;6405;59.208;18.216;2024-01-30T11:51:45;3.10;99.90
12682;DHT22;6405;59.208;18.216;2024-01-30T11:54:11;3.10;99.90
12682;DHT22;6405;59.208;18.216;2024-01-30T11:56:37;3.10;99.90
12682;DHT22;6405;59.208;18.216;2024-01-30T11:59:04;3.10;99.90
12682;DHT22;6405;59.208;18.216;2024-01-30T12:01:31;3.10;99.90
12682;DHT22;6405;59.208;18.216;2024-01-30T12:03:58;3.10;99.90
12682;DHT22;6405;59.208;18.216;2024-01-30T12:06:24;3.10;99.90
12682;DHT22;6405;59.208;18.216;2024-01-30T12:09:00;3.00;99.90
12682;DHT22;6405;59.208;18.216;2024-01-30T12:11:27;3.20;99.90
12682;DHT22;6405;59.208;18.216;2024-01-30T12:13:53;3.00;99.90
12682;DHT22;6405;59.208;18.216;2024-01-30T12:16:20;3.00;99.90
12682;DHT22;6405;59.208;18.216;2024-01-30T12:18:46;3.00;99.90
12682;DHT22;6405;59.208;18.216;2024-01-30T12:21:11;3.00;99.90
12682;DHT22;6405;59.208;18.216;2024-01-30T12:23:37;3.00;99.90
12682;DHT22;6405;59.208;18.216;2024-01-30T12:26:04;3.00;99.90
12682;DHT22;6405;59.208;18.216;2024-01-30T12:28:33;3.10;99.90
12682;DHT22;6405;59.208;18.216;2024-01-30T12:31:02;3.10;99.90
12682;DHT22;6405;59.208;18.216;2024-01-30T12:33:29;3.10;99.90
12682;DHT22;6405;59.208;18.216;2024-01-30T12:35:55;3.10;99.90
12682;DHT22;6405;59.208;18.216;2024-01-30T12:38:21;3.10;99.90
12682;DHT22;6405;59.208;18.216;2024-01-30T12:40:47;3.10;99.90
12682;DHT22;6405;59.208;18.216;2024-01-30T12:43:13;3.10;99.90
12682;DHT22;6405;59.208;18.216;2024-01-30T12:45:41;3.10;99.90
12682;DHT22;6405;59.208;18.216;2024-01-30T12:48:08;3.10;99.90
12682;DHT22;6405;59.208;18.216;2024-01-30T12:50:34;3.00;99.90
12682;DHT22;6405;59.208;18.216;2024-01-30T12:53:00;3.00;99.90
12682;DHT22;6405;59.208;18.216;2024-01-30T12:55:25;3.00;99.90
12682;DHT22;6405;59.208;18.216;2024-01-30T12:57:54;3.00;99.90
12682;DHT22;6405;59.208;18.216;2024-01-30T13:00:20;2.90;99.90
12682;DHT22;6405;59.208;18.216;2024-01-30T13:02:47;2.90;99.90
12682;DHT22;6405;59.208;18.216;2024-01-30T13:05:13;3.10;99.90
12682;DHT22;6405;59.208;18.216;2024-01-30T13:07:38;2.90;99.90
12682;DHT22;6405;59.208;18.216;2024-01-30T13:10:04;2.90;99.90
12682;DHT22;6405;59.208;18.216;2024-01-30T13:12:30;2.90;99.90
12682;DHT22;6405;59.208;18.216;2024-01-30T13:14:57;3.10;99.90
12682;DHT22;6405;59.208;18.216;2024-01-30T13:17:24;2.90;99.90
12682;DHT22;6405;59.208;18.216;2024-01-30T13:19:49;2.90;99.90
12682;DHT22;6405;59.208;18.216;2024-01-30T13:22:15;2.80;99.90
12682;DHT22;6405;59.208;18.216;2024-01-30T13:24:41;2.90;99.90
12682;DHT22;6405;59.208;18.216;2024-01-30T13:27:07;2.80;99.90
12682;DHT22;6405;59.208;18.216;2024-01-30T13:29:34;2.80;99.90
12682;DHT22;6405;59.208;18.216;2024-01-30T13:31:59;2.80;99.90
12682;DHT22;6405;59.208;18.216;2024-01-30T13:34:25;2.80;99.90
12682;DHT22;6405;59.208;18.216;2024-01-30T13:36:51;2.80;99.90
12682;DHT22;6405;59.208;18.216;2024-01-30T13:39:17;2.80;99.90
12682;DHT22;6405;59.208;18.216;2024-01-30T13:41:43;2.90;99.90
12682;DHT22;6405;59.208;18.216;2024-01-30T13:44:08;2.70;99.90
12682;DHT22;6405;59.208;18.216;2024-01-30T13:46:35;2.70;99.90
12682;DHT22;6405;59.208;18.216;2024-01-30T13:49:01;2.90;99.90
12682;DHT22;6405;59.208;18.216;2024-01-30T13:51:27;2.80;99.90
12682;DHT22;6405;59.208;18.216;2024-01-30T13:53:53;2.70;99.90
12682;DHT22;6405;59.208;18.216;2024-01-30T13:56:21;2.70;99.90
12682;DHT22;6405;59.208;18.216;2024-01-30T13:58:50;2.80;99.90
12682;DHT22;6405;59.208;18.216;2024-01-30T14:01:16;2.80;99.90
12682;DHT22;6405;59.208;18.216;2024-01-30T14:03:42;2.70;99.90
12682;DHT22;6405;59.208;18.216;2024-01-30T14:06:08;2.70;99.90
12682;DHT22;6405;59.208;18.216;2024-01-30T14:08:34;2.70;99.90
12682;DHT22;6405;59.208;18.216;2024-01-30T14:10:59;2.80;99.90
12682;DHT22;6405;59.208;18.216;2024-01-30T14:13:25;2.80;99.90
12682;DHT22;6405;59.208;18.216;2024-01-30T14:15:53;2.60;99.90
12682;DHT22;6405;59.208;18.216;2024-01-30T14:18:19;2.70;99.90
12682;DHT22;6405;59.208;18.216;2024-01-30T14:20:45;2.60;99.90
12682;DHT22;6405;59.208;18.216;2024-01-30T14:23:11;2.50;99.90
12682;DHT22;6405;59.208;18.216;2024-01-30T14:25:37;2.50;99.90
12682;DHT22;6405;59.208;18.216;2024-01-30T14:28:03;2.80;99.90
12682;DHT22;6405;59.208;18.216;2024-01-30T14:30:28;2.50;99.90
12682;DHT22;6405;59.208;18.216;2024-01-30T14:32:54;2.50;99.90
12682;DHT22;6405;59.208;18.216;2024-01-30T14:35:21;2.50;99.90
12682;DHT22;6405;59.208;18.216;2024-01-30T14:37:47;2.50;99.90
12682;DHT22;6405;59.208;18.216;2024-01-30T14:40:13;2.40;99.90
12682;DHT22;6405;59.208;18.216;2024-01-30T14:42:38;2.40;99.90
12682;DHT22;6405;59.208;18.216;2024-01-30T14:45:06;2.40;99.90
12682;DHT22;6405;59.208;18.216;2024-01-30T14:47:32;2.40;99.90
12682;DHT22;6405;59.208;18.216;2024-01-30T14:49:58;2.40;99.90
12682;DHT22;6405;59.208;18.216;2024-01-30T14:52:23;2.40;99.90
12682;DHT22;6405;59.208;18.216;2024-01-30T14:54:49;2.30;99.90
12682;DHT22;6405;59.208;18.216;2024-01-30T14:57:15;2.30;99.90
12682;DHT22;6405;59.208;18.216;2024-01-30T14:59:41;2.30;99.90
12682;DHT22;6405;59.208;18.216;2024-01-30T15:02:07;2.30;99.90
12682;DHT22;6405;59.208;18.216;2024-01-30T15:04:33;2.30;99.90
12682;DHT22;6405;59.208;18.216;2024-01-30T15:06:59;2.30;99.90
12682;DHT22;6405;59.208;18.216;2024-01-30T15:09:24;2.30;99.90
12682;DHT22;6405;59.208;18.216;2024-01-30T15:11:52;2.30;99.90
12682;DHT22;6405;59.208;18.216;2024-01-30T15:14:18;2.30;99.90
12682;DHT22;6405;59.208;18.216;2024-01-30T15:16:44;2.30;99.90
12682;DHT22;6405;59.208;18.216;2024-01-30T15:19:10;2.30;99.90
12682;DHT22;6405;59.208;18.216;2024-01-30T15:21:36;2.30;99.90
12682;DHT22;6405;59.208;18.216;2024-01-30T15:24:02;2.20;99.90
12682;DHT22;6405;59.208;18.216;2024-01-30T15:26:28;2.30;99.90
12682;DHT22;6405;59.208;18.216;2024-01-30T15:28:54;2.20;99.90
12682;DHT22;6405;59.208;18.216;2024-01-30T15:31:20;2.20;99.90
12682;DHT22;6405;59.208;18.216;2024-01-30T15:33:46;2.20;99.90
12682;DHT22;6405;59.208;18.216;2024-01-30T15:36:12;2.20;99.90